CYBX

Lourdes de Blanc Sablon Airport

Lourdes-De-Blanc-Sablon, Quebec, Canada
METAR CYBX 181400Z 25008KT 15SM BKN006 OVC056 15/13 A2987 RMK SC5SC3 SLP117 DENSITY ALT 200FT
Observed Flight Rules
Aug-18 @ 14:00 UTC (51 minutes ago) Instrument Flight Rules
Wind Visibility Clouds
250° at 8 knots 15 miles
  • Broken at 600' AGL
  • Overcast at 5,600' AGL
Temperatures Readings
Current 15°C / 59°F
Dewpoint 13°C / 55°F
Humidity 88%
Altimeter 29.87" Hg
Pressure 1011.7 hPa
Elevation 35
METAR CYBX 181400Z 25008KT 15SM BKN006 OVC056 15/13 A2987 RMK SC5SC3 SLP117 DENSITY ALT 200FT
Observed Flight Rules
Aug-18 @ 14:00 UTC
(51 minutes ago)
IFR
Wind Visibility
250° at 8 knots 15 miles
Clouds
  • Broken at 600' AGL
  • Overcast at 5,600' AGL
Temperature Dewpoint
15°C / 59°F 13°C / 55°F
Humidity Altimeter Pressure
88% 29.87" Hg 1011.7 hPa